Time;durP1;ratioP1;P1;durP2;ratioP2;P2;SDS_P1;SDS_P2;PMS_P1;PMS_P2;Temp;Humidity;BMP_temperature;BMP_pressure;BME280_temperature;BME280_humidity;BME280_pressure;Samples;Min_cycle;Max_cycle;Signal;HPM_P1;HPM_P2
2023/08/01 00:00:59;;;;;;;9.40;7.40;;;;;;;19.21;100.00;99207.28;105898;1260;60844;-69
2023/08/01 00:03:28;;;;;;;8.80;7.90;;;;;;;19.19;100.00;99208.93;107035;1259;59504;-72
2023/08/01 00:05:56;;;;;;;8.80;7.80;;;;;;;19.19;100.00;99205.74;106605;1255;71770;-72
2023/08/01 00:08:23;;;;;;;8.10;7.40;;;;;;;19.22;100.00;99207.31;106899;1254;69040;-70
2023/08/01 00:10:51;;;;;;;8.50;7.80;;;;;;;19.24;100.00;99207.58;106967;1260;71399;-74
2023/08/01 00:13:19;;;;;;;9.40;8.40;;;;;;;19.22;100.00;99212.06;106948;1258;59541;-77
2023/08/01 00:15:46;;;;;;;7.90;7.10;;;;;;;19.19;100.00;99209.67;107075;1254;60259;-73
2023/08/01 00:18:31;;;;;;;8.80;8.00;;;;;;;19.20;100.00;99206.09;107416;1259;71879;-74
2023/08/01 00:20:59;;;;;;;9.40;7.80;;;;;;;19.20;100.00;99206.52;109212;1254;68854;-74
2023/08/01 00:23:26;;;;;;;9.40;7.10;;;;;;;19.19;100.00;99201.48;108718;1254;71084;-73
2023/08/01 00:25:55;;;;;;;8.20;7.40;;;;;;;19.16;100.00;99200.88;108141;1254;60534;-73
2023/08/01 00:28:23;;;;;;;8.70;7.90;;;;;;;19.13;100.00;99200.73;108382;1254;60026;-71
2023/08/01 00:30:51;;;;;;;8.90;8.10;;;;;;;19.08;100.00;99199.42;109021;1255;71784;-71
2023/08/01 00:33:18;;;;;;;13.00;8.70;;;;;;;19.12;100.00;99202.58;109124;1254;69125;-72
2023/08/01 00:35:53;;;;;;;8.60;7.80;;;;;;;19.17;100.00;99202.25;107957;1259;71435;-72
2023/08/01 00:38:21;;;;;;;8.50;7.80;;;;;;;19.17;100.00;99201.93;106685;1260;59547;-70
2023/08/01 00:40:50;;;;;;;8.50;7.50;;;;;;;19.10;100.00;99199.10;106598;1259;59780;-72
2023/08/01 00:43:17;;;;;;;8.10;7.40;;;;;;;19.10;100.00;99199.34;106439;1254;74974;-74
2023/08/01 00:45:45;;;;;;;9.20;7.10;;;;;;;19.16;100.00;99201.80;106493;1259;70487;-73
2023/08/01 00:48:13;;;;;;;8.80;7.90;;;;;;;19.18;100.00;99198.84;108514;1257;71157;-72
2023/08/01 00:50:41;;;;;;;9.90;7.70;;;;;;;19.21;100.00;99200.77;108291;1257;60409;-72
2023/08/01 00:53:09;;;;;;;8.20;7.40;;;;;;;19.25;100.00;99198.65;108376;1255;58733;-71
2023/08/01 00:55:37;;;;;;;8.60;7.90;;;;;;;19.33;100.00;99193.33;106229;1261;73360;-74
2023/08/01 00:58:04;;;;;;;9.50;8.60;;;;;;;19.34;100.00;99193.27;105214;1264;68831;-75
2023/08/01 01:00:33;;;;;;;8.30;7.60;;;;;;;19.32;100.00;99191.63;105355;1259;71607;-74
2023/08/01 01:03:01;;;;;;;8.70;7.90;;;;;;;19.34;100.00;99187.30;105911;1260;60339;-73
2023/08/01 01:05:31;;;;;;;8.50;7.80;;;;;;;19.36;100.00;99185.45;105702;1258;60774;-74
2023/08/01 01:07:59;;;;;;;9.10;8.30;;;;;;;19.31;100.00;99177.13;105842;1254;73799;-76
2023/08/01 01:10:27;;;;;;;8.90;8.10;;;;;;;19.25;100.00;99178.95;105629;1259;68404;-74
2023/08/01 01:12:55;;;;;;;9.30;8.40;;;;;;;19.25;100.00;99180.40;105578;1259;71386;-72
2023/08/01 01:15:23;;;;;;;9.20;8.30;;;;;;;19.26;100.00;99177.95;105537;1257;62512;-72
2023/08/01 01:17:51;;;;;;;12.20;8.80;;;;;;;19.24;100.00;99180.86;105410;1258;60592;-72
2023/08/01 01:20:25;;;;;;;10.40;8.70;;;;;;;19.18;100.00;99180.73;106064;1254;73199;-72
2023/08/01 01:22:53;;;;;;;9.60;8.70;;;;;;;19.15;100.00;99181.98;106567;1267;68764;-73
2023/08/01 01:25:22;;;;;;;10.90;9.30;;;;;;;19.14;100.00;99179.92;106600;1260;72663;-73
2023/08/01 01:27:49;;;;;;;10.50;9.60;;;;;;;19.11;100.00;99171.65;105465;1269;60482;-73
2023/08/01 01:30:18;;;;;;;10.40;9.40;;;;;;;19.05;100.00;99176.33;105808;1254;62037;-75
2023/08/01 01:32:45;;;;;;;11.20;9.50;;;;;;;19.06;100.00;99175.28;105740;1258;73862;-74
2023/08/01 01:35:13;;;;;;;10.10;9.00;;;;;;;19.06;100.00;99175.48;105326;1261;69228;-73
2023/08/01 01:37:40;;;;;;;11.60;9.60;;;;;;;19.04;100.00;99175.44;105377;1259;72702;-73
2023/08/01 01:40:08;;;;;;;10.90;9.90;;;;;;;18.99;100.00;99178.27;105354;1262;60542;-71
2023/08/01 01:42:36;;;;;;;10.30;9.30;;;;;;;18.94;100.00;99177.66;105550;1255;60905;-74
2023/08/01 01:45:05;;;;;;;10.80;9.60;;;;;;;18.94;100.00;99180.50;105568;1259;73937;-73
2023/08/01 01:47:32;;;;;;;11.40;9.60;;;;;;;18.93;100.00;99179.91;105625;1254;71394;-75
2023/08/01 01:50:00;;;;;;;15.00;9.80;;;;;;;18.92;100.00;99181.21;105981;1262;76458;-74
2023/08/01 01:52:28;;;;;;;12.80;11.10;;;;;;;18.87;100.00;99177.99;108093;1255;59289;-75
2023/08/01 01:54:55;;;;;;;10.30;9.30;;;;;;;18.87;100.00;99176.55;107361;1260;60341;-76
2023/08/01 01:57:23;;;;;;;10.50;9.60;;;;;;;18.96;100.00;99177.42;105888;1254;74024;-75
2023/08/01 01:59:51;;;;;;;10.30;9.30;;;;;;;19.01;100.00;99174.70;105855;1261;69174;-75
2023/08/01 02:02:18;;;;;;;11.10;10.00;;;;;;;19.02;100.00;99176.09;106213;1259;72722;-75
2023/08/01 02:04:47;;;;;;;13.20;10.30;;;;;;;18.97;100.00;99173.00;106689;1257;60406;-77
2023/08/01 02:07:16;;;;;;;9.90;9.00;;;;;;;19.00;100.00;99171.54;106425;1259;60518;-77
2023/08/01 02:09:44;;;;;;;11.40;10.10;;;;;;;19.05;100.00;99174.50;106499;1255;72659;-76
2023/08/01 02:12:14;;;;;;;11.10;10.00;;;;;;;19.06;100.00;99179.85;106242;1254;72700;-76
2023/08/01 02:14:42;;;;;;;11.10;9.30;;;;;;;19.03;100.00;99179.46;105889;1259;72943;-77
2023/08/01 02:17:10;;;;;;;12.10;10.50;;;;;;;19.07;100.00;99182.23;106219;1257;62136;-75
2023/08/01 02:19:38;;;;;;;11.20;10.00;;;;;;;19.12;100.00;99183.39;105604;1260;60438;-76
2023/08/01 02:22:05;;;;;;;13.50;10.20;;;;;;;19.08;100.00;99184.95;105841;1254;72878;-77
2023/08/01 02:24:33;;;;;;;11.30;10.00;;;;;;;19.01;100.00;99185.02;108509;1254;68748;-77
2023/08/01 02:27:00;;;;;;;11.80;9.90;;;;;;;19.00;100.00;99185.48;107307;1260;71762;-76
2023/08/01 02:29:29;;;;;;;12.60;9.80;;;;;;;19.02;100.00;99180.89;105728;1254;60728;-77
2023/08/01 02:31:57;;;;;;;10.90;9.80;;;;;;;18.98;100.00;99182.25;105777;1254;60426;-79
2023/08/01 02:34:25;;;;;;;11.70;10.50;;;;;;;18.86;100.00;99185.92;105693;1260;73842;-77
2023/08/01 02:36:53;;;;;;;9.80;8.90;;;;;;;18.76;100.00;99185.92;105794;1258;68142;-74
2023/08/01 02:39:22;;;;;;;11.80;9.90;;;;;;;18.68;100.00;99184.97;106027;1261;71493;-78
2023/08/01 02:41:49;;;;;;;11.50;9.20;;;;;;;18.61;100.00;99184.64;105720;1262;60481;-77
2023/08/01 02:44:17;;;;;;;12.90;10.00;;;;;;;18.57;100.00;99184.55;107032;1254;60294;-73
2023/08/01 02:46:44;;;;;;;10.80;9.80;;;;;;;18.55;100.00;99187.42;106555;1254;73728;-75
2023/08/01 02:49:12;;;;;;;11.90;9.70;;;;;;;18.52;100.00;99189.28;107471;1258;68897;-76
2023/08/01 02:51:40;;;;;;;9.70;8.70;;;;;;;18.56;100.00;99188.79;107662;1254;71513;-76
2023/08/01 02:54:08;;;;;;;9.70;8.60;;;;;;;18.61;100.00;99192.63;108211;1254;61704;-74
2023/08/01 02:56:40;;;;;;;9.70;8.40;;;;;;;18.64;100.00;99186.83;107660;1258;60537;-78
2023/08/01 02:59:09;;;;;;;10.40;9.40;;;;;;;18.63;100.00;99184.98;105383;1254;72659;-79
2023/08/01 03:01:38;;;;;;;10.90;9.80;;;;;;;18.69;100.00;99181.82;105722;1259;70418;-76
2023/08/01 03:04:06;;;;;;;11.80;9.30;;;;;;;18.77;100.00;99181.63;105422;1256;72713;-78
2023/08/01 03:06:34;;;;;;;11.90;10.40;;;;;;;18.83;100.00;99184.58;105575;1260;60855;-75
2023/08/01 03:09:01;;;;;;;12.20;10.90;;;;;;;18.84;100.00;99183.85;105310;1260;60514;-78
2023/08/01 03:11:29;;;;;;;11.30;10.20;;;;;;;18.84;100.00;99184.59;105441;1259;72654;-78
2023/08/01 03:13:56;;;;;;;11.10;9.90;;;;;;;18.88;100.00;99182.64;105586;1260;69967;-77
2023/08/01 03:16:24;;;;;;;11.00;10.00;;;;;;;18.94;100.00;99186.64;105602;1258;74577;-76
2023/08/01 03:18:51;;;;;;;12.20;10.80;;;;;;;18.95;100.00;99185.80;105571;1257;60403;-75
2023/08/01 03:21:19;;;;;;;11.70;10.60;;;;;;;18.94;100.00;99190.30;106172;1260;60461;-75
2023/08/01 03:23:47;;;;;;;11.20;9.90;;;;;;;18.97;100.00;99189.40;107181;1254;72761;-77
2023/08/01 03:26:16;;;;;;;12.00;10.70;;;;;;;19.01;100.00;99190.73;108501;1254;69403;-78
2023/08/01 03:28:43;;;;;;;12.10;10.60;;;;;;;19.00;100.00;99187.52;105741;1254;72914;-78
2023/08/01 03:31:11;;;;;;;12.10;11.10;;;;;;;18.96;100.00;99189.00;105777;1258;60775;-78
2023/08/01 03:33:39;;;;;;;13.50;11.10;;;;;;;18.98;100.00;99188.46;105657;1257;60874;-78
2023/08/01 03:36:08;;;;;;;12.10;10.60;;;;;;;19.03;100.00;99188.50;105865;1254;71719;-77
2023/08/01 03:38:36;;;;;;;14.20;11.70;;;;;;;19.05;100.00;99192.75;105767;1254;69131;-78
2023/08/01 03:41:03;;;;;;;13.50;12.20;;;;;;;19.01;100.00;99193.95;105721;1259;72740;-77
2023/08/01 03:43:31;;;;;;;12.30;11.00;;;;;;;18.97;100.00;99193.13;105703;1257;61693;-77
2023/08/01 03:45:59;;;;;;;11.90;10.70;;;;;;;18.99;100.00;99194.98;105752;1254;60484;-77
2023/08/01 03:48:27;;;;;;;15.80;11.50;;;;;;;19.00;100.00;99195.71;105545;1259;73840;-78
2023/08/01 03:50:55;;;;;;;13.00;11.60;;;;;;;19.00;100.00;99194.14;105834;1255;70161;-77
2023/08/01 03:53:22;;;;;;;15.50;12.20;;;;;;;18.97;100.00;99193.92;107049;1254;71464;-75
2023/08/01 03:55:50;;;;;;;11.50;10.10;;;;;;;18.97;100.00;99198.17;108764;1257;60677;-76
2023/08/01 03:58:17;;;;;;;11.60;10.40;;;;;;;19.06;100.00;99195.02;105747;1254;60433;-76
2023/08/01 04:00:45;;;;;;;12.30;11.00;;;;;;;19.13;100.00;99199.30;105559;1260;73911;-78
2023/08/01 04:03:13;;;;;;;14.60;13.00;;;;;;;19.12;100.00;99200.42;105600;1254;71534;-77
2023/08/01 04:05:41;;;;;;;12.70;11.40;;;;;;;19.06;100.00;99198.95;105777;1259;72634;-76
2023/08/01 04:08:08;;;;;;;11.90;10.70;;;;;;;19.09;100.00;99198.70;105752;1259;61136;-77
2023/08/01 04:10:36;;;;;;;11.00;9.90;;;;;;;19.10;100.00;99201.51;105799;1254;60611;-76
2023/08/01 04:13:04;;;;;;;13.10;11.80;;;;;;;19.05;100.00;99201.05;105656;1261;73336;-77
2023/08/01 04:15:31;;;;;;;12.50;11.20;;;;;;;19.04;100.00;99201.23;105385;1260;69208;-74
2023/08/01 04:18:00;;;;;;;14.00;12.40;;;;;;;19.03;100.00;99202.20;105413;1254;72723;-76
2023/08/01 04:20:28;;;;;;;12.70;11.40;;;;;;;19.03;100.00;99200.17;105558;1260;60531;-76
2023/08/01 04:22:55;;;;;;;12.60;11.40;;;;;;;19.19;100.00;99206.55;106688;1257;60436;-76
2023/08/01 04:25:24;;;;;;;11.90;10.70;;;;;;;19.29;100.00;99205.95;108366;1256;72604;-74
2023/08/01 04:27:53;;;;;;;12.80;11.60;;;;;;;19.37;100.00;99202.40;107535;1260;70257;-78
2023/08/01 04:30:21;;;;;;;12.90;11.30;;;;;;;19.46;100.00;99199.56;105666;1260;71431;-77
2023/08/01 04:32:49;;;;;;;11.90;10.70;;;;;;;19.55;100.00;99205.60;106066;1254;60480;-78
2023/08/01 04:35:17;;;;;;;12.20;11.00;;;;;;;19.67;99.84;99200.61;106402;1254;60450;-77
2023/08/01 04:37:44;;;;;;;11.60;10.50;;;;;;;19.84;99.15;99198.31;106936;1259;73832;-76
2023/08/01 04:40:12;;;;;;;12.20;11.00;;;;;;;20.01;99.37;99193.74;106461;1254;70154;-76
2023/08/01 04:42:40;;;;;;;12.20;11.00;;;;;;;20.16;99.39;99196.91;106798;1255;71119;-78
2023/08/01 04:45:07;;;;;;;13.80;12.20;;;;;;;20.30;98.75;99198.44;106149;1254;60860;-78
2023/08/01 04:47:35;;;;;;;14.20;12.80;;;;;;;20.48;97.57;99203.68;106373;1254;60551;-79
2023/08/01 04:50:04;;;;;;;15.30;13.40;;;;;;;20.62;96.50;99202.84;106346;1259;72663;-80
2023/08/01 04:52:31;;;;;;;15.00;13.40;;;;;;;20.67;95.69;99207.50;106616;1254;68868;-79
2023/08/01 04:54:59;;;;;;;12.50;11.40;;;;;;;20.68;95.01;99211.26;108810;1253;71404;-77
2023/08/01 04:57:27;;;;;;;12.70;11.50;;;;;;;20.67;93.52;99210.53;107418;1255;61120;-75
2023/08/01 04:59:54;;;;;;;13.30;12.00;;;;;;;20.64;93.29;99206.21;106650;1257;60422;-77
2023/08/01 05:02:22;;;;;;;14.40;12.80;;;;;;;20.65;94.12;99209.80;106064;1256;73917;-75
2023/08/01 05:04:49;;;;;;;11.30;10.20;;;;;;;20.65;94.19;99209.20;105812;1260;69760;-77
2023/08/01 05:07:17;;;;;;;9.10;8.20;;;;;;;20.62;93.31;99210.03;105819;1257;71905;-75
2023/08/01 05:09:44;;;;;;;9.30;8.30;;;;;;;20.63;90.73;99212.42;105581;1255;61751;-77
2023/08/01 05:12:12;;;;;;;10.70;8.30;;;;;;;20.59;91.03;99206.24;105425;1258;60444;-76
2023/08/01 05:14:40;;;;;;;10.70;9.10;;;;;;;20.57;91.43;99207.92;105346;1260;73925;-75
2023/08/01 05:17:08;;;;;;;9.70;8.60;;;;;;;20.57;91.69;99206.90;105532;1254;70323;-73
2023/08/01 05:19:35;;;;;;;12.40;9.60;;;;;;;20.64;91.53;99211.14;105595;1254;72600;-76
2023/08/01 05:22:04;;;;;;;10.70;9.50;;;;;;;20.78;91.32;99211.17;107089;1254;60775;-74
2023/08/01 05:24:31;;;;;;;12.00;10.00;;;;;;;20.90;90.95;99210.70;108114;1254;60453;-76
2023/08/01 05:26:59;;;;;;;11.60;9.40;;;;;;;20.94;89.52;99210.88;106969;1257;72635;-76
2023/08/01 05:29:27;;;;;;;11.40;10.20;;;;;;;20.95;88.97;99204.93;105386;1260;69172;-76
2023/08/01 05:31:54;;;;;;;12.80;8.90;;;;;;;20.99;89.48;99206.73;105792;1256;72469;-76
2023/08/01 05:34:22;;;;;;;15.10;9.40;;;;;;;21.09;89.46;99206.56;105789;1259;60485;-73
2023/08/01 05:36:50;;;;;;;10.90;8.80;;;;;;;21.14;88.51;99206.42;105502;1260;62394;-73
2023/08/01 05:39:17;;;;;;;12.10;8.70;;;;;;;21.16;88.07;99207.59;105201;1254;72659;-74
2023/08/01 05:41:45;;;;;;;23.00;10.40;;;;;;;21.21;87.48;99204.69;105505;1257;70684;-76
2023/08/01 05:44:13;;;;;;;18.30;8.60;;;;;;;21.32;85.54;99206.13;105722;1256;71435;-77
2023/08/01 05:46:41;;;;;;;11.80;8.40;;;;;;;21.33;83.98;99204.39;105926;1259;60398;-75
2023/08/01 05:49:09;;;;;;;9.60;8.00;;;;;;;21.29;84.09;99206.89;105938;1255;60782;-77
2023/08/01 05:51:36;;;;;;;11.70;7.60;;;;;;;21.28;84.37;99205.85;106488;1254;74454;-77
2023/08/01 05:54:04;;;;;;;16.00;8.50;;;;;;;21.40;84.60;99206.96;108056;1254;71433;-77
2023/08/01 05:56:31;;;;;;;10.70;8.30;;;;;;;21.52;84.67;99210.93;107955;1256;71537;-78
2023/08/01 05:58:59;;;;;;;9.60;7.40;;;;;;;21.60;84.07;99211.06;105729;1258;62202;-78
2023/08/01 06:01:27;;;;;;;10.10;8.20;;;;;;;21.64;83.01;99212.13;106038;1254;60346;-76
2023/08/01 06:03:54;;;;;;;14.30;9.20;;;;;;;21.68;83.09;99213.10;105470;1256;72855;-79
2023/08/01 06:06:22;;;;;;;14.60;10.50;;;;;;;21.78;82.06;99210.49;105961;1254;70993;-78
2023/08/01 06:08:51;;;;;;;20.40;12.30;;;;;;;21.84;81.60;99209.42;105476;1255;71599;-76
2023/08/01 06:11:19;;;;;;;22.20;13.20;;;;;;;21.87;81.64;99212.09;105597;1259;61001;-76
2023/08/01 06:13:46;;;;;;;19.70;13.40;;;;;;;21.91;81.91;99210.89;105623;1254;60538;-78
2023/08/01 06:16:14;;;;;;;16.90;11.40;;;;;;;21.94;81.94;99211.36;105975;1254;74894;-75
2023/08/01 06:18:41;;;;;;;11.20;9.20;;;;;;;22.04;81.47;99213.13;105977;1254;70364;-77
2023/08/01 06:21:09;;;;;;;12.40;8.80;;;;;;;22.08;80.73;99210.46;106254;1254;71796;-76
2023/08/01 06:23:37;;;;;;;7.50;5.90;;;;;;;22.10;80.06;99218.59;107662;1257;60622;-75
2023/08/01 06:26:04;;;;;;;6.50;5.90;;;;;;;22.09;79.27;99213.55;108421;1254;60336;-77
2023/08/01 06:28:32;;;;;;;4.80;4.40;;;;;;;22.10;79.08;99210.42;107037;1256;72247;-78
2023/08/01 06:31:00;;;;;;;5.20;4.70;;;;;;;22.17;78.36;99208.38;106936;1254;68791;-78
2023/08/01 06:33:27;;;;;;;5.50;5.00;;;;;;;22.22;78.53;99207.55;106782;1254;71128;-77
2023/08/01 06:35:55;;;;;;;5.70;5.20;;;;;;;22.19;78.14;99211.04;106854;1254;60439;-78
2023/08/01 06:38:22;;;;;;;5.10;4.60;;;;;;;22.15;78.27;99211.65;106864;1254;60434;-77
2023/08/01 06:40:51;;;;;;;6.40;5.40;;;;;;;22.17;78.74;99210.55;106842;1254;72591;-77
2023/08/01 06:43:19;;;;;;;6.40;4.70;;;;;;;22.29;78.40;99215.17;107097;1254;69001;-76
2023/08/01 06:45:49;;;;;;;5.40;4.90;;;;;;;22.40;78.36;99214.61;106618;1258;71055;-78
2023/08/01 06:48:16;;;;;;;8.00;5.10;;;;;;;22.47;78.16;99212.88;106736;1260;60415;-79
2023/08/01 06:50:44;;;;;;;6.40;5.70;;;;;;;22.51;77.47;99211.88;107103;1254;60605;-77
2023/08/01 06:53:12;;;;;;;7.00;6.10;;;;;;;22.52;77.94;99209.82;108513;1254;73776;-78
2023/08/01 06:55:40;;;;;;;5.90;5.00;;;;;;;22.57;78.04;99206.77;109001;1253;69153;-79
2023/08/01 06:58:07;;;;;;;4.90;4.50;;;;;;;22.67;77.96;99202.62;107655;1256;71359;-78
2023/08/01 07:00:35;;;;;;;6.00;5.50;;;;;;;22.80;77.85;99207.90;106907;1260;60513;-79
2023/08/01 07:03:04;;;;;;;5.10;4.60;;;;;;;22.88;77.06;99205.77;106936;1258;60411;-76
2023/08/01 07:05:31;;;;;;;5.80;4.30;;;;;;;22.95;76.30;99204.30;106833;1254;72906;-77
2023/08/01 07:07:59;;;;;;;5.10;4.60;;;;;;;23.01;75.67;99202.44;107005;1253;70289;-78
2023/08/01 07:10:27;;;;;;;5.90;4.60;;;;;;;23.08;75.91;99201.31;107076;1254;70959;-77
2023/08/01 07:12:54;;;;;;;4.40;4.00;;;;;;;23.17;74.69;99201.46;108829;1254;60977;-78
2023/08/01 07:15:22;;;;;;;4.90;4.10;;;;;;;23.28;73.40;99201.02;109365;1254;60834;-77
2023/08/01 07:17:50;;;;;;;4.80;4.30;;;;;;;23.33;72.62;99198.89;109178;1254;72599;-78
2023/08/01 07:20:19;;;;;;;4.70;4.30;;;;;;;23.37;73.11;99199.80;109186;1256;69094;-77
2023/08/01 07:22:48;;;;;;;5.20;4.70;;;;;;;23.42;73.10;99202.27;108808;1254;71256;-78
2023/08/01 07:25:16;;;;;;;5.40;4.70;;;;;;;23.43;73.45;99199.17;108956;1256;59651;-78
2023/08/01 07:27:43;;;;;;;9.40;5.90;;;;;;;23.46;72.83;99201.52;109147;1254;58746;-78
2023/08/01 07:30:11;;;;;;;5.20;4.80;;;;;;;23.50;73.32;99204.89;108964;1256;73218;-78
2023/08/01 07:32:39;;;;;;;5.10;4.50;;;;;;;23.61;73.10;99200.10;108843;1254;69033;-78
2023/08/01 07:35:07;;;;;;;6.20;4.60;;;;;;;23.69;73.14;99203.70;109025;1254;71198;-77
2023/08/01 07:37:35;;;;;;;5.00;4.30;;;;;;;23.70;72.54;99204.13;109344;1253;58760;-79
2023/08/01 07:40:03;;;;;;;7.10;4.60;;;;;;;23.67;71.64;99209.16;109127;1253;58982;-78
2023/08/01 07:42:30;;;;;;;5.50;4.90;;;;;;;23.60;71.70;99203.45;109283;1253;72799;-79
2023/08/01 07:44:58;;;;;;;5.20;4.50;;;;;;;23.56;71.88;99205.13;109239;1253;71335;-76
2023/08/01 07:47:25;;;;;;;4.70;4.30;;;;;;;23.57;71.82;99204.27;109278;1253;71227;-77
2023/08/01 07:49:53;;;;;;;5.10;4.60;;;;;;;23.60;72.17;99205.63;109257;1253;59028;-80
2023/08/01 07:52:21;;;;;;;5.10;4.40;;;;;;;23.64;71.38;99209.22;109007;1253;58763;-77
2023/08/01 07:54:48;;;;;;;4.90;4.30;;;;;;;23.67;70.85;99207.48;108973;1253;72695;-77
2023/08/01 07:57:16;;;;;;;7.20;4.70;;;;;;;23.71;71.02;99208.52;109456;1253;68884;-77
2023/08/01 07:59:44;;;;;;;5.20;4.50;;;;;;;23.79;71.14;99206.07;109211;1254;71927;-77
2023/08/01 08:02:11;;;;;;;5.30;4.70;;;;;;;23.91;71.03;99208.39;109126;1253;58803;-78
2023/08/01 08:04:39;;;;;;;5.90;4.60;;;;;;;23.95;70.09;99207.36;109222;1253;59493;-76
2023/08/01 08:07:06;;;;;;;4.90;4.50;;;;;;;23.97;70.29;99203.84;107046;1254;72916;-78
2023/08/01 08:09:34;;;;;;;5.00;4.60;;;;;;;24.02;70.52;99199.92;106636;1255;68943;-76
2023/08/01 08:12:02;;;;;;;6.20;4.70;;;;;;;24.08;70.75;99206.94;106199;1257;72713;-77
2023/08/01 08:14:30;;;;;;;5.80;5.20;;;;;;;24.13;69.95;99208.19;106837;1258;59251;-77
2023/08/01 08:16:57;;;;;;;7.20;4.80;;;;;;;24.14;69.82;99209.98;106649;1253;60416;-78
2023/08/01 08:19:25;;;;;;;5.30;4.80;;;;;;;24.13;69.34;99205.04;106366;1255;72640;-77
2023/08/01 08:21:53;;;;;;;5.40;4.90;;;;;;;24.09;69.74;99206.45;107465;1253;70084;-78
2023/08/01 08:24:20;;;;;;;5.10;4.60;;;;;;;24.07;69.94;99200.16;108225;1253;71149;-76
2023/08/01 08:26:48;;;;;;;5.10;4.50;;;;;;;24.06;70.23;99204.39;108348;1253;59308;-75
2023/08/01 08:29:16;;;;;;;7.60;4.40;;;;;;;24.12;69.85;99202.33;108423;1253;61039;-76
2023/08/01 08:31:43;;;;;;;5.80;4.50;;;;;;;24.23;69.89;99205.48;108382;1253;73932;-79
2023/08/01 08:34:11;;;;;;;5.60;5.10;;;;;;;24.29;69.82;99200.98;108267;1256;68700;-75
2023/08/01 08:36:38;;;;;;;6.90;4.20;;;;;;;24.34;69.52;99201.79;106034;1253;72734;-73
2023/08/01 08:39:06;;;;;;;5.60;4.80;;;;;;;24.45;69.72;99198.73;105957;1255;60460;-71
2023/08/01 08:41:46;;;;;;;5.30;4.80;;;;;;;24.57;69.96;99197.56;105867;1254;60554;-76
2023/08/01 08:44:19;;;;;;;6.00;4.50;;;;;;;24.67;69.74;99191.47;105830;1254;72842;-72
2023/08/01 08:46:51;;;;;;;4.80;4.30;;;;;;;24.78;69.40;99191.77;106075;1258;68869;-73
2023/08/01 08:49:20;;;;;;;5.40;5.00;;;;;;;24.87;69.09;99190.11;105923;1257;70995;-74
2023/08/01 08:51:48;;;;;;;6.10;4.40;;;;;;;24.98;69.66;99182.27;106259;1254;63867;-74
2023/08/01 08:54:16;;;;;;;5.20;4.70;;;;;;;25.19;68.45;99181.75;107148;1254;60270;-73
2023/08/01 08:56:44;;;;;;;6.40;5.00;;;;;;;25.42;68.39;99182.11;106928;1254;74782;-73
2023/08/01 08:59:11;;;;;;;4.80;4.40;;;;;;;25.62;68.16;99183.09;106449;1255;68864;-74
2023/08/01 09:01:39;;;;;;;6.00;4.80;;;;;;;25.81;67.68;99180.08;105429;1254;73100;-75
2023/08/01 09:04:07;;;;;;;4.90;4.50;;;;;;;25.98;67.26;99173.02;105782;1253;60413;-79
2023/08/01 09:06:43;;;;;;;6.30;4.60;;;;;;;26.15;65.63;99165.06;105624;1254;441627;-78
2023/08/01 09:11:56;;;;;;;8.10;4.60;;;;;;;26.49;65.02;99160.61;102657;1294;601051;-78
2023/08/01 09:14:23;;;;;;;5.30;4.80;;;;;;;26.68;64.07;99165.08;105093;1271;59692;-79
2023/08/01 09:16:49;;;;;;;4.90;4.50;;;;;;;26.84;63.04;99161.48;105455;1267;60334;-77
2023/08/01 09:19:20;;;;;;;4.40;4.00;;;;;;;26.96;61.93;99165.63;105511;1266;72309;-79
2023/08/01 09:21:47;;;;;;;6.10;5.00;;;;;;;26.97;61.99;99156.52;105633;1271;70224;-76
2023/08/01 09:24:20;;;;;;;4.50;4.20;;;;;;;26.89;61.33;99163.05;106861;1264;215342;-80
2023/08/01 09:26:47;;;;;;;5.70;4.70;;;;;;;26.84;61.31;99159.77;107053;1267;59097;-77
2023/08/01 09:29:18;;;;;;;5.60;5.10;;;;;;;26.92;61.67;99157.89;105702;1267;59358;-79
2023/08/01 09:31:49;;;;;;;4.70;4.30;;;;;;;27.08;61.34;99156.27;105459;1268;72921;-78
2023/08/01 09:34:23;;;;;;;7.00;5.00;;;;;;;27.20;60.61;99157.00;105725;1268;68962;-78
2023/08/01 09:36:50;;;;;;;5.50;4.70;;;;;;;27.22;59.60;99155.55;105490;1264;71397;-79
2023/08/01 09:39:19;;;;;;;5.90;5.30;;;;;;;27.10;59.72;99157.61;106079;1268;59651;-79
2023/08/01 09:41:52;;;;;;;6.00;5.00;;;;;;;27.03;60.47;99149.04;106279;1269;60533;-80
2023/08/01 09:44:19;;;;;;;5.50;5.00;;;;;;;27.17;61.27;99153.07;106297;1271;71951;-77
2023/08/01 09:47:00;;;;;;;5.30;4.80;;;;;;;27.53;61.11;99153.15;106597;1269;69525;-77
2023/08/01 09:49:28;;;;;;;5.90;4.50;;;;;;;28.08;60.22;99146.65;107933;1266;72625;-80
2023/08/01 09:51:57;;;;;;;6.10;4.70;;;;;;;28.53;58.66;99135.45;107684;1257;60716;-80
2023/08/01 09:54:24;;;;;;;5.70;5.20;;;;;;;28.98;58.12;99142.85;108467;1257;59063;-78
2023/08/01 09:56:52;;;;;;;5.00;4.50;;;;;;;29.36;57.49;99137.58;107389;1262;71863;-79
2023/08/01 09:59:24;;;;;;;4.50;4.20;;;;;;;29.58;55.37;99132.42;106040;1262;69154;-79
2023/08/01 10:01:52;;;;;;;5.50;5.00;;;;;;;29.63;54.17;99134.23;105867;1262;71674;-77
2023/08/01 10:04:27;;;;;;;4.90;4.40;;;;;;;29.71;54.08;99133.02;105612;1262;59656;-76
2023/08/01 10:06:59;;;;;;;4.80;4.40;;;;;;;30.01;56.17;99128.71;105628;1257;61106;-75
2023/08/01 10:09:26;;;;;;;4.80;4.40;;;;;;;30.49;54.22;99122.49;105563;1263;73196;-75
2023/08/01 10:11:52;;;;;;;5.20;4.40;;;;;;;30.78;52.13;99124.61;105564;1262;70261;-75
2023/08/01 10:14:20;;;;;;;5.60;4.50;;;;;;;30.78;51.23;99121.26;105485;1264;71933;-75
2023/08/01 10:16:47;;;;;;;6.90;4.30;;;;;;;30.57;51.22;99122.23;105434;1257;60326;-76
2023/08/01 10:19:15;;;;;;;5.00;4.60;;;;;;;30.33;50.85;99121.21;105739;1262;60582;-77
2023/08/01 10:21:42;;;;;;;5.40;4.00;;;;;;;30.05;50.30;99117.52;105817;1258;72490;-76
2023/08/01 10:24:09;;;;;;;6.20;4.60;;;;;;;29.81;50.64;99114.66;106000;1263;70470;-76
2023/08/01 10:26:36;;;;;;;4.60;4.20;;;;;;;29.79;52.36;99116.42;105556;1263;72166;-76
2023/08/01 10:29:03;;;;;;;4.40;3.90;;;;;;;30.00;53.11;99112.89;105679;1262;59651;-75
2023/08/01 10:31:30;;;;;;;4.20;3.90;;;;;;;30.44;52.99;99111.54;105278;1265;60705;-77
2023/08/01 10:34:12;;;;;;;4.00;3.70;;;;;;;30.85;50.97;99110.80;105495;1257;72238;-77
2023/08/01 10:36:39;;;;;;;4.60;4.20;;;;;;;31.38;49.98;99113.21;105514;1264;68762;-76
2023/08/01 10:39:06;;;;;;;5.50;3.60;;;;;;;31.77;48.13;99114.25;105751;1270;74194;-77
2023/08/01 10:41:34;;;;;;;3.70;3.40;;;;;;;32.16;46.98;99106.71;106519;1263;60152;-76
2023/08/01 10:44:04;;;;;;;4.00;3.70;;;;;;;32.53;46.34;99101.98;105980;1257;60370;-75
2023/08/01 10:46:53;;;;;;;4.30;3.90;;;;;;;32.87;46.61;99100.46;105699;1258;73754;-78
2023/08/01 10:49:32;;;;;;;4.40;4.00;;;;;;;33.16;45.42;99096.56;105769;1262;71306;-77
2023/08/01 10:51:58;;;;;;;4.50;3.80;;;;;;;33.40;45.33;99094.34;106319;1262;72800;-75
2023/08/01 10:54:27;;;;;;;4.40;3.50;;;;;;;33.49;45.09;99093.42;106250;1257;59506;-74
2023/08/01 10:56:55;;;;;;;5.70;4.10;;;;;;;33.50;44.21;99088.27;105857;1257;59618;-77
2023/08/01 10:59:22;;;;;;;3.90;3.60;;;;;;;33.29;43.73;99086.13;105863;1260;73088;-77
2023/08/01 11:01:52;;;;;;;3.80;3.50;;;;;;;33.00;43.96;99085.57;105673;1257;70599;-76
2023/08/01 11:04:22;;;;;;;4.00;3.60;;;;;;;32.89;44.57;99080.39;105349;1261;72539;-76
2023/08/01 11:06:52;;;;;;;4.10;3.80;;;;;;;33.04;44.50;99079.75;106282;1260;60279;-75
2023/08/01 11:09:24;;;;;;;4.20;3.90;;;;;;;33.46;44.06;99086.77;106971;1257;60529;-76
2023/08/01 11:11:52;;;;;;;4.30;3.60;;;;;;;33.98;42.92;99086.20;106851;1258;73046;-78
2023/08/01 11:14:22;;;;;;;4.60;3.90;;;;;;;34.54;42.94;99081.98;105651;1261;60276;-76
2023/08/01 11:16:49;;;;;;;3.50;3.20;;;;;;;35.32;41.57;99077.90;105481;1260;64103;-74
2023/08/01 11:19:20;;;;;;;3.70;3.40;;;;;;;36.04;40.20;99082.64;105178;1258;59616;-71
2023/08/01 11:21:47;;;;;;;3.40;3.20;;;;;;;36.38;38.55;99075.39;105365;1258;59551;-77
2023/08/01 11:24:14;;;;;;;3.20;2.90;;;;;;;36.31;37.62;99071.27;107421;1257;62951;-75